• Join FlightAware (Why Join?)
  • Login
  • US Flag 
03:21AM EDT


 

Airport Tracker/Info


-or-


 

Live Flight TrackerFlight Track Log ✈ AVN10 ✈ 14-Sep-2013 ✈ NVVV / VLI - YSSY / SYD

Flight Track Log - Related Links

Times and Time Zones

All times are in EDT time to prevent confusion due to time zone crossing. See the AVN10 flight status page for this flight to view local times or setup timezone preferences in your user account.

Time Position Orientation Groundspeed Altitude Reporting Facility
EDT Latitude Longitude Course Direction KTS MPH feet Rate Location/Type
12:43AM -17.8637 168.0927 233° Southwest  Level FlightAware Approximate
12:44AM -17.9184 168.0169 233° Southwest  Level FlightAware Approximate
12:45AM -17.9731 167.9410 233° Southwest  Level FlightAware Approximate
12:46AM -18.0277 167.8651 233° Southwest  Level FlightAware Approximate
12:47AM -18.0824 167.7892 233° Southwest  Level FlightAware Approximate
12:48AM -18.1370 167.7132 233° Southwest  Level FlightAware Approximate
12:49AM -18.1916 167.6371 233° Southwest  Level FlightAware Approximate
12:50AM -18.2461 167.5610 233° Southwest  Level FlightAware Approximate
12:51AM -18.3006 167.4849 233° Southwest  Level FlightAware Approximate
12:52AM -18.3551 167.4087 233° Southwest  Level FlightAware Approximate
12:53AM -18.4096 167.3325 233° Southwest  Level FlightAware Approximate
12:54AM -18.4640 167.2562 233° Southwest  Level FlightAware Approximate
12:55AM -18.5184 167.1799 233° Southwest  Level FlightAware Approximate
12:56AM -18.5728 167.1035 233° Southwest  Level FlightAware Approximate
12:57AM -18.6271 167.0271 233° Southwest  Level FlightAware Approximate
12:58AM -18.6814 166.9506 233° Southwest  Level FlightAware Approximate
12:59AM -18.7357 166.8741 233° Southwest  Level FlightAware Approximate
01:00AM -18.7899 166.7975 233° Southwest  Level FlightAware Approximate
01:01AM -18.8441 166.7209 233° Southwest  Level FlightAware Approximate
01:02AM -18.8983 166.6442 233° Southwest  Level FlightAware Approximate
01:03AM -18.9524 166.5675 233° Southwest  Level FlightAware Approximate
01:04AM -19.0065 166.4907 233° Southwest  Level FlightAware Approximate
01:05AM -19.0606 166.4139 233° Southwest  Level FlightAware Approximate
01:06AM -19.1147 166.3370 233° Southwest  Level FlightAware Approximate
01:07AM -19.1687 166.2601 233° Southwest  Level FlightAware Approximate
01:08AM -19.2227 166.1832 233° Southwest  Level FlightAware Approximate
01:09AM -19.2766 166.1061 233° Southwest  Level FlightAware Approximate
01:10AM -19.3306 166.0291 233° Southwest  Level FlightAware Approximate
01:11AM -19.3845 165.9519 233° Southwest  Level FlightAware Approximate
01:12AM -19.4383 165.8748 233° Southwest  Level FlightAware Approximate
01:13AM -19.4921 165.7975 234° Southwest  Level FlightAware Approximate
01:14AM -19.5459 165.7202 234° Southwest  Level FlightAware Approximate
01:15AM -19.5997 165.6429 234° Southwest  Level FlightAware Approximate
01:16AM -19.6534 165.5655 234° Southwest  Level FlightAware Approximate
01:17AM -19.7071 165.4881 234° Southwest  Level FlightAware Approximate
01:18AM -19.7608 165.4106 234° Southwest  Level FlightAware Approximate
01:19AM -19.8144 165.3331 234° Southwest  Level FlightAware Approximate
01:20AM -19.8680 165.2555 234° Southwest  Level FlightAware Approximate
01:21AM -19.9215 165.1779 234° Southwest  Level FlightAware Approximate
01:22AM -19.9922 165.1176 236° Southwest  Level Estimated
01:23AM -20.0456 165.0398 234° Southwest  Level FlightAware Approximate
01:24AM -20.0990 164.9620 234° Southwest  Level FlightAware Approximate
01:25AM -20.1523 164.8840 234° Southwest  Level FlightAware Approximate
01:26AM -20.2057 164.8060 234° Southwest  Level FlightAware Approximate
01:27AM -20.2589 164.7280 234° Southwest  Level FlightAware Approximate
01:28AM -20.3122 164.6499 234° Southwest  Level FlightAware Approximate
01:29AM -20.3654 164.5718 234° Southwest  Level FlightAware Approximate
01:30AM -20.4185 164.4936 234° Southwest  Level FlightAware Approximate
01:31AM -20.4717 164.4153 234° Southwest  Level FlightAware Approximate
01:31AM -21.4635 162.8968 234° Southwest 36,000  Level Aus ATC (Calculated)
01:33AM -21.5520 162.7634 234° Southwest  Level FlightAware Approximate
01:34AM -21.5985 162.6932 235° Southwest  Level FlightAware Approximate
01:34AM -21.6701 162.5840 235° Southwest 36,000  Level Aus ATC (Calculated)
01:36AM -21.7576 162.4514 235° Southwest  Level FlightAware Approximate
01:36AM -21.7946 162.3946 235° Southwest 36,000  Level Aus ATC (Calculated)
01:37AM -21.8410 162.3241 235° Southwest  Level FlightAware Approximate
01:37AM -21.9112 162.2167 235° Southwest 36,000  Level Aus ATC (Calculated)
01:38AM -21.8874 162.2536 235° Southwest  Level FlightAware Approximate
01:39AM -21.9668 162.1320 235° Southwest  Level FlightAware Approximate
01:39AM -22.0203 162.0497 235° Southwest 36,000  Level Aus ATC (Calculated)
01:41AM -22.0894 161.9441 235° Southwest  Level FlightAware Approximate
01:42AM -22.1354 161.8737 235° Southwest  Level FlightAware Approximate
01:43AM -22.1813 161.8032 235° Southwest  Level FlightAware Approximate
01:44AM -22.2273 161.7327 235° Southwest  Level FlightAware Approximate
01:45AM -22.2732 161.6621 235° Southwest  Level FlightAware Approximate
01:46AM -22.3190 161.5914 235° Southwest  Level FlightAware Approximate
01:47AM -22.3649 161.5208 235° Southwest  Level FlightAware Approximate
01:48AM -22.4107 161.4500 235° Southwest  Level FlightAware Approximate
01:49AM -22.4565 161.3793 235° Southwest  Level FlightAware Approximate
01:50AM -22.5022 161.3084 235° Southwest  Level FlightAware Approximate
01:51AM -22.5479 161.2376 235° Southwest  Level FlightAware Approximate
01:52AM -22.5936 161.1667 235° Southwest  Level FlightAware Approximate
01:53AM -22.6393 161.0957 235° Southwest  Level FlightAware Approximate
01:54AM -22.6849 161.0247 235° Southwest  Level FlightAware Approximate
01:55AM -22.7305 160.9536 235° Southwest  Level FlightAware Approximate
01:56AM -22.7761 160.8825 235° Southwest  Level FlightAware Approximate
01:57AM -22.8216 160.8114 235° Southwest  Level FlightAware Approximate
01:58AM -22.8671 160.7402 235° Southwest  Level FlightAware Approximate
01:59AM -22.9126 160.6689 235° Southwest  Level FlightAware Approximate
02:00AM -22.9580 160.5976 235° Southwest  Level FlightAware Approximate
02:01AM -23.0034 160.5263 235° Southwest  Level FlightAware Approximate
02:02AM -23.0488 160.4549 235° Southwest  Level FlightAware Approximate
02:03AM -23.0941 160.3835 235° Southwest  Level FlightAware Approximate
02:04AM -23.1394 160.3120 235° Southwest  Level FlightAware Approximate
02:05AM -23.1847 160.2404 235° Southwest  Level FlightAware Approximate
02:06AM -23.2299 160.1689 235° Southwest  Level FlightAware Approximate
02:07AM -23.2752 160.0972 235° Southwest  Level FlightAware Approximate
02:08AM -23.3203 160.0255 236° Southwest  Level FlightAware Approximate
02:09AM -23.3864 159.9767 229° Southwest  Level Estimated
02:10AM -23.4356 159.9082 232° Southwest  Level FlightAware Approximate
02:11AM -23.4847 159.8395 232° Southwest  Level FlightAware Approximate
02:12AM -23.5338 159.7709 232° Southwest  Level FlightAware Approximate
02:13AM -24.4253 158.2342 236° Southwest 36,000  Level Aus ATC (Calculated)
02:13AM -23.5828 159.7021 232° Southwest  Level FlightAware Approximate
02:14AM -24.4753 158.1658 231° Southwest  Level FlightAware Approximate
02:14AM -24.5233 158.0732 236° Southwest 36,000  Level Aus ATC (Calculated)
02:14AM -24.5559 158.0195 236° Southwest 36,000  Level Aus ATC (Calculated)
02:16AM -24.6218 157.9294 231° Southwest  Level FlightAware Approximate
02:17AM -24.6718 157.8609 231° Southwest  Level FlightAware Approximate
02:17AM -24.7836 157.6427 236° Southwest 36,000  Level Aus ATC (Calculated)
02:18AM -24.7218 157.7924 231° Southwest  Level FlightAware Approximate
02:19AM -24.8423 157.5630 231° Southwest  Level FlightAware Approximate
02:20AM -24.8926 157.4946 231° Southwest  Level FlightAware Approximate
02:21AM -24.9428 157.4262 231° Southwest  Level FlightAware Approximate
02:22AM -24.9930 157.3577 231° Southwest  Level FlightAware Approximate
02:23AM -25.0432 157.2892 231° Southwest  Level FlightAware Approximate
02:24AM -25.0933 157.2206 231° Southwest  Level FlightAware Approximate
02:25AM -25.1435 157.1519 231° Southwest  Level FlightAware Approximate
02:26AM -25.1936 157.0832 231° Southwest  Level FlightAware Approximate
02:27AM -25.2436 157.0144 231° Southwest  Level FlightAware Approximate
02:28AM -25.2936 156.9456 231° Southwest  Level FlightAware Approximate
02:29AM -25.3436 156.8767 231° Southwest  Level FlightAware Approximate
02:29AM -25.5890 156.2856 57° Northeast 36,000  Level Aus ATC (Calculated)
02:31AM -25.6867 156.1588 229° Southwest  Level FlightAware Approximate
02:32AM -25.7386 156.0915 229° Southwest  Level FlightAware Approximate
02:33AM -25.7904 156.0240 230° Southwest  Level FlightAware Approximate
02:34AM -25.8422 155.9565 230° Southwest  Level FlightAware Approximate
02:34AM -26.0163 155.6821 54° Northeast 36,000  Level Aus ATC (Calculated)
02:35AM -26.0910 155.5857 54° Northeast 36,000  Level Aus ATC (Calculated)
02:37AM -26.1787 155.4722 229° Southwest  Level FlightAware Approximate
02:37AM -26.2030 155.4407 53° Northeast 36,000  Level Aus ATC (Calculated)
02:37AM -26.2776 155.3439 53° Northeast 36,000  Level Aus ATC (Calculated)
02:39AM -26.3374 155.2662 229° Southwest  Level FlightAware Approximate
02:40AM -26.3893 155.1985 229° Southwest  Level FlightAware Approximate
02:40AM -26.4637 155.1015 53° Northeast 36,000  Level Aus ATC (Calculated)
02:41AM -25.3097 156.7663 229° Southwest 370 426 36,000  Level Aus ATC (RADAR)
02:42AM -25.3409 156.7075 240° Southwest 370 426 36,000  Level Aus ATC (RADAR)
02:42AM -25.3590 156.6770 234° Southwest 375 432 36,000  Level FlightAware
02:42AM -25.3761 156.6530 234° Southwest 369 425 36,000  Level Aus ATC (RADAR)
02:43AM -25.3950 156.6180 236° Southwest 375 432 36,000  Level FlightAware
02:43AM -25.4240 156.5690 237° Southwest 375 432 36,000  Level FlightAware
02:44AM -25.4540 156.5200 236° Southwest 375 432 36,000  Level FlightAware
02:44AM -25.4840 156.4710 236° Southwest 375 432 36,000  Level FlightAware
02:45AM -25.5140 156.4230 235° Southwest 375 432 36,000  Level FlightAware
02:46AM -25.5430 156.3740 237° Southwest 375 432 36,000  Level FlightAware
02:46AM -25.5740 156.3240 235° Southwest 375 432 36,000  Level FlightAware
02:47AM -25.6030 156.2750 237° Southwest 375 432 36,000 -120 Level FlightAware
02:47AM -25.6723 156.1436 237° Southwest 372 428 35,900  Descending Aus ATC (RADAR)
02:47AM -25.6330 156.2260 237° Southwest 375 432 36,000  Climbing FlightAware
02:48AM -25.7047 156.0865 237° Southwest 373 429 35,900  Descending Aus ATC (RADAR)
02:48AM -25.6630 156.1770 237° Southwest 375 432 36,000  Climbing FlightAware
02:49AM -25.7413 156.0316 237° Southwest 377 434 35,900  Descending Aus ATC (RADAR)
02:49AM -25.7580 156.0140 237° Southwest 382 440 36,000 60 Climbing FlightAware
02:49AM -25.8060 155.9530 237° Southwest 380 437 36,000 -180 Level FlightAware
02:50AM -25.8060 155.9514 237° Southwest 376 433 35,900  Descending Aus ATC (RADAR)
02:50AM -25.8450 155.9030 229° Southwest 379 436 36,000 60 Climbing FlightAware
02:51AM -25.8750 155.8630 230° Southwest 378 435 36,000  Level FlightAware
02:51AM -25.9170 155.8100 230° Southwest 377 434 36,000 -180 Level FlightAware
02:51AM -25.9216 155.8063 230° Southwest 371 427 35,900 -180 Descending Aus ATC (RADAR)
02:52AM -25.9612 155.7544 230° Southwest 373 429 35,900 120 Level Aus ATC (RADAR)
02:52AM -25.9650 155.7480 230° Southwest 376 433 36,000  Climbing FlightAware
02:52AM -26.0004 155.7026 230° Southwest 373 429 35,900  Descending Aus ATC (RADAR)
02:52AM -26.0050 155.6960 230° Southwest 376 433 36,000 120 Climbing FlightAware
02:53AM -26.0390 155.6530 229° Southwest 377 434 36,000 -120 Level FlightAware
02:53AM -26.0741 155.6075 229° Southwest 373 429 35,900  Descending Aus ATC (RADAR)
02:53AM -26.0800 155.6000 229° Southwest 378 435 36,000  Climbing FlightAware
02:54AM -26.1142 155.5562 229° Southwest 373 429 35,900  Descending Aus ATC (RADAR)
02:54AM -26.1230 155.5440 229° Southwest 378 435 36,000  Climbing FlightAware
02:55AM -26.1601 155.4976 229° Southwest 373 429 35,900  Descending Aus ATC (RADAR)
02:55AM -26.1570 155.5000 229° Southwest 379 436 36,000 120 Climbing FlightAware
02:55AM -26.2040 155.4400 229° Southwest 379 436 36,000  Level FlightAware
02:56AM -26.2450 155.3860 230° Southwest 379 436 36,000 -120 Level FlightAware
02:56AM -26.2796 155.3419 230° Southwest 374 430 35,900  Descending Aus ATC (RADAR)
02:56AM -26.2790 155.3410 230° Southwest 378 435 36,000  Climbing FlightAware
02:57AM -26.3185 155.2892 230° Southwest 375 432 35,900  Descending Aus ATC (RADAR)
02:57AM -26.3180 155.2910 230° Southwest 378 435 36,000 180 Climbing FlightAware
02:57AM -26.3540 155.2450 229° Southwest 378 435 36,000  Level FlightAware
02:58AM -26.3920 155.1960 229° Southwest 378 435 36,000 -180 Level FlightAware
02:58AM -26.3982 155.1858 229° Southwest 374 430 35,900  Descending Aus ATC (RADAR)
02:59AM -26.4330 155.1420 229° Southwest 378 435 36,000  Climbing FlightAware
02:59AM -26.4376 155.1338 229° Southwest 374 430 35,900  Descending Aus ATC (RADAR)
02:59AM -26.4730 155.0890 230° Southwest 378 435 36,000  Climbing FlightAware
03:00AM -26.5119 155.0382 230° Southwest 374 430 35,900  Descending Aus ATC (RADAR)
03:00AM -26.5130 155.0380 230° Southwest 378 435 36,000 120 Climbing FlightAware
03:00AM -26.5520 154.9860 230° Southwest 378 435 36,000  Level FlightAware
03:01AM -26.5900 154.9370 229° Southwest 378 435 36,000  Level FlightAware
03:02AM -26.6380 154.8740 230° Southwest 380 437 36,000  Level FlightAware
03:02AM -26.6710 154.8300 230° Southwest 380 437 36,000 -120 Level FlightAware
03:03AM -26.7159 154.7700 230° Southwest 377 434 35,900  Descending Aus ATC (RADAR)
03:03AM -26.7170 154.7690 230° Southwest 379 436 36,000 180 Climbing FlightAware
03:03AM -26.7510 154.7250 229° Southwest 380 437 36,000 -120 Level FlightAware
03:04AM -26.7899 154.6730 229° Southwest 377 434 35,900  Descending Aus ATC (RADAR)
03:04AM -26.7900 154.6740 229° Southwest 379 436 36,000 120 Climbing FlightAware
03:04AM -26.8300 154.6200 230° Southwest 378 435 36,000  Level FlightAware
03:05AM -26.8690 154.5680 230° Southwest 377 434 36,000 -120 Level FlightAware
03:06AM -26.9080 154.5161 230° Southwest 373 429 35,900  Descending Aus ATC (RADAR)
03:06AM -26.9080 154.5180 230° Southwest 376 433 36,000 120 Climbing FlightAware
03:06AM -26.9480 154.4650 230° Southwest 376 433 36,000  Level FlightAware
03:07AM -26.9830 154.4180 230° Southwest 376 433 36,000  Level FlightAware
03:07AM -27.0320 154.3530 230° Southwest 376 433 36,000  Level FlightAware
03:08AM -27.0640 154.3110 229° Southwest 376 433 36,000  Level FlightAware
03:09AM -27.1110 154.2480 230° Southwest 378 435 36,000  Level FlightAware
03:09AM -27.1450 154.2020 230° Southwest 379 436 36,000  Level FlightAware
03:10AM -27.1850 154.1500 229° Southwest 378 435 36,000 -120 Level FlightAware
03:10AM -27.2230 154.0984 229° Southwest 376 433 35,900  Descending Aus ATC (RADAR)
03:10AM -27.2300 154.0890 229° Southwest 375 432 36,000 180 Climbing FlightAware
03:11AM -27.2580 154.0520 230° Southwest 374 430 36,000 -120 Level FlightAware
03:11AM -27.3005 153.9939 230° Southwest 371 427 35,900  Descending Aus ATC (RADAR)
03:11AM -27.3020 153.9930 230° Southwest 376 433 36,000  Climbing FlightAware
03:12AM -27.3399 153.9422 230° Southwest 370 426 35,900  Descending Aus ATC (RADAR)
03:12AM -27.3400 153.9420 230° Southwest 377 434 36,000 180 Climbing FlightAware
03:13AM -27.3750 153.8950 230° Southwest 379 436 36,000 -120 Level FlightAware
03:13AM -27.4129 153.8443 230° Southwest 374 430 35,900  Descending Aus ATC (RADAR)
03:13AM -27.4140 153.8430 230° Southwest 378 435 36,000  Climbing FlightAware
03:14AM -27.4523 153.7915 230° Southwest 376 433 35,900  Descending Aus ATC (RADAR)
03:14AM -27.4590 153.7820 230° Southwest 380 437 36,000 120 Climbing FlightAware
03:14AM -27.5000 153.7270 230° Southwest 382 440 36,000  Level FlightAware
03:15AM -27.5330 153.6830 230° Southwest 385 443 36,000 -240 Level FlightAware
03:15AM -27.5375 153.6779 230° Southwest 380 437 35,900  Descending Aus ATC (RADAR)
03:15AM -27.5710 153.6310 230° Southwest 389 448 36,000  Climbing FlightAware
03:16AM -27.6174 153.5682 230° Southwest 385 443 35,900  Descending Aus ATC (RADAR)
03:16AM -27.6190 153.5660 230° Southwest 389 448 36,000  Climbing FlightAware
03:17AM -27.6581 153.5139 230° Southwest 386 444 35,900  Descending Aus ATC (RADAR)
03:17AM -27.6600 153.5110 230° Southwest 387 445 36,000 180 Climbing FlightAware
03:17AM -27.6940 153.4640 231° Southwest 385 443 36,000  Level FlightAware
03:18AM -27.7330 153.4130 229° Southwest 385 443 36,000  Level FlightAware
03:18AM -27.7790 153.3490 231° Southwest 385 443 36,000  Level FlightAware
03:19AM -27.8130 153.3030 230° Southwest 384 442 36,000  Level FlightAware
03:20AM -27.8530 153.2490 230° Southwest 384 442 36,000  Level FlightAware
03:20AM -27.8940 153.1930 230° Southwest 383 441 36,000  Level FlightAware
03:21AM -27.9330 153.1400 230° Southwest 382 440 36,000 -180 Level FlightAware
03:21AM -27.9359 153.1349 230° Southwest 383 441 35,900  Descending Aus ATC (RADAR)
03:21AM -27.9720 153.0870 230° Southwest 383 441 36,000  Climbing FlightAware
03:21AM -27.9753 153.0811 230° Southwest 382 440 35,900 -180 Descending Aus ATC (RADAR)
03:22AM -28.0146 153.0271 230° Southwest 381 438 35,900 120 Level Aus ATC (RADAR)
03:22AM -28.0170 153.0240 230° Southwest 383 441 36,000 180 Climbing FlightAware
03:22AM -28.0510 152.9780 230° Southwest 382 440 36,000 -240 Level FlightAware
03:23AM -28.0540 152.9731 230° Southwest 381 438 35,900  Descending Aus ATC (RADAR)
03:23AM -28.0930 152.9290 230° Southwest 386 444 36,000  Climbing FlightAware
03:23AM -28.0975 152.9236 230° Southwest 380 437 35,900  Descending Aus ATC (RADAR)
03:23AM -28.1270 152.9080 209° Southwest 396 456 36,000 120 Climbing FlightAware
03:24AM -28.1770 152.8860 201° Southwest 397 457 36,000  Level FlightAware
03:24AM -28.2380 152.8590 201° Southwest 400 460 36,000  Level FlightAware
03:25AM -28.2980 152.8320 201° Southwest 402 463 36,000 -180 Level FlightAware
03:25AM -28.3114 152.8257 201° Southwest 401 461 35,900  Descending Aus ATC (RADAR)
03:26AM -28.3680 152.8010 201° Southwest 404 465 36,000 60 Climbing FlightAware
03:26AM -28.4190 152.7780 202° Southwest 405 466 36,000  Level FlightAware
03:27AM -28.4800 152.7510 201° Southwest 406 467 36,000  Level FlightAware
03:27AM -28.5410 152.7240 201° Southwest 402 463 36,000  Level FlightAware
03:28AM -28.6120 152.6920 202° Southwest 397 457 36,000  Level FlightAware
03:29AM -28.6630 152.6690 202° Southwest 393 452 36,000  Level FlightAware
03:29AM -28.7200 152.6430 202° Southwest 390 449 36,000  Level FlightAware
03:30AM -28.7810 152.6160 201° Southwest 390 449 36,000  Level FlightAware
03:30AM -28.8460 152.5870 201° Southwest 389 448 36,000  Level FlightAware
03:31AM -28.8970 152.5630 202° Southwest 389 448 36,000  Level FlightAware
03:31AM -28.9540 152.5380 202° Southwest 389 448 36,000  Level FlightAware
03:32AM -28.9683 152.5318 202° Southwest 386 444 36,000  Level Aus ATC (RADAR)
03:32AM -29.0160 152.5100 202° Southwest 389 448 36,000  Level FlightAware
03:33AM -29.0810 152.4800 202° Southwest 388 447 36,000  Level FlightAware
03:33AM -29.1320 152.4570 202° Southwest 389 448 36,000  Level FlightAware
03:34AM -29.1870 152.4320 202° Southwest 395 455 36,000  Level FlightAware
03:34AM -29.2490 152.4040 202° Southwest 401 461 36,000  Level FlightAware
03:35AM -29.3120 152.3760 201° Southwest 403 464 36,000  Level FlightAware
03:36AM -29.3730 152.3480 201° Southwest 400 460 36,000 -180 Level FlightAware
03:36AM -29.3755 152.3475 201° Southwest 400 460 35,900  Descending Aus ATC (RADAR)
03:36AM -29.4330 152.3210 201° Southwest 399 459 36,000 60 Climbing FlightAware
03:37AM -29.4930 152.2930 202° Southwest 399 459 36,000  Level FlightAware
03:37AM -29.5550 152.2655 202° Southwest 399 459 36,000  Level Aus ATC (RADAR)
03:37AM -29.5500 152.2670 202° Southwest 398 458 36,000  Level FlightAware
03:38AM -29.6120 152.2390 202° Southwest 400 460 36,000  Level FlightAware
03:38AM -29.6150 152.2386 202° Southwest 398 458 36,000  Level Aus ATC (RADAR)
03:38AM -29.6753 152.2104 202° Southwest 400 460 36,000  Level Aus ATC (RADAR)
03:38AM -29.6740 152.2110 202° Southwest 401 461 36,000 -240 Level FlightAware
03:39AM -29.7268 152.1866 202° Southwest 398 458 35,900  Descending Aus ATC (RADAR)
03:39AM -29.7430 152.1790 202° Southwest 399 459 36,000 120 Climbing FlightAware
03:40AM -29.7940 152.1560 201° Southwest 400 460 36,000  Level FlightAware
03:40AM -29.8510 152.1300 202° Southwest 401 461 36,000 -120 Level FlightAware
03:41AM -29.9159 152.0992 202° Southwest 400 460 35,900  Descending Aus ATC (RADAR)
03:41AM -29.9140 152.1000 202° Southwest 403 464 36,000 120 Climbing FlightAware
03:41AM -29.9720 152.0740 201° Southwest 401 461 36,000  Level FlightAware
03:42AM -30.0270 152.0480 202° Southwest 398 458 36,000 -120 Level FlightAware
03:42AM -30.0875 152.0199 202° Southwest 397 457 35,900  Descending Aus ATC (RADAR)
03:43AM -30.0920 152.0190 202° Southwest 398 458 36,000 -180 Climbing FlightAware
03:43AM -30.1474 151.9922 202° Southwest 398 458 35,800  Descending Aus ATC (RADAR)
03:43AM -30.1730 151.9810 202° Southwest 396 456 36,000 180 Climbing FlightAware
03:44AM -30.2290 151.9550 202° Southwest 387 445 36,000  Level FlightAware
03:44AM -30.2770 151.9330 202° Southwest 387 445 36,000  Level FlightAware
03:45AM -30.3500 151.8990 202° Southwest 386 444 36,000 -120 Level FlightAware
03:46AM -30.4099 151.8705 202° Southwest 394 453 35,900  Descending Aus ATC (RADAR)
03:46AM -30.4080 151.8720 202° Southwest 386 444 36,000 120 Climbing FlightAware
03:46AM -30.4650 151.8460 201° Southwest 387 445 36,000  Level FlightAware
03:47AM -30.5270 151.8170 202° Southwest 387 445 36,000  Level FlightAware
03:47AM -30.5791 151.7919 202° Southwest 394 453 36,000  Level Aus ATC (RADAR)
03:47AM -30.5860 151.7890 202° Southwest 385 443 36,000  Level FlightAware
03:48AM -30.6460 151.7610 202° Southwest 382 440 36,000  Level FlightAware
03:49AM -30.7040 151.7340 202° Southwest 379 436 36,000  Level FlightAware
03:49AM -30.7620 151.7070 202° Southwest 386 444 36,000  Level FlightAware
03:50AM -30.8190 151.6800 202° Southwest 384 442 36,000  Level FlightAware
03:50AM -30.8710 151.6560 202° Southwest 383 441 36,000 -120 Level FlightAware
03:51AM -30.9352 151.6253 202° Southwest 381 438 35,900  Descending Aus ATC (RADAR)
03:51AM -30.9470 151.6200 202° Southwest 379 436 36,000 120 Climbing FlightAware
03:52AM -31.0090 151.5910 202° Southwest 378 435 36,000  Level FlightAware
03:52AM -31.0700 151.5620 202° Southwest 376 433 36,000  Level FlightAware
03:53AM -31.1378 151.5299 202° Southwest 377 434 36,000  Level Aus ATC (RADAR)
03:53AM -31.1330 151.5320 202° Southwest 379 436 36,000  Level FlightAware
03:54AM -31.1920 151.5050 201° Southwest 383 441 36,000  Level FlightAware
03:54AM -31.2420 151.4810 202° Southwest 384 442 36,000  Level FlightAware
03:55AM -31.2990 151.4540 202° Southwest 385 443 36,000 -180 Level FlightAware
03:55AM -31.3110 151.4489 202° Southwest 386 444 35,900 -360 Descending Aus ATC (RADAR)
03:55AM -31.3688 151.4216 202° Southwest 385 443 35,800 120 Descending Aus ATC (RADAR)
03:55AM -31.3590 151.4250 202° Southwest 385 443 36,000 300 Climbing FlightAware
03:56AM -31.4260 151.3940 202° Southwest 383 441 36,000  Level FlightAware
03:56AM -31.4789 151.3710 202° Southwest 378 435 36,000  Level Aus ATC (RADAR)
03:57AM -31.4830 151.3690 202° Southwest 378 435 36,000  Level FlightAware
03:57AM -31.5420 151.3430 201° Southwest 375 432 36,000  Level FlightAware
03:58AM -31.6006 151.3168 201° Southwest 371 427 36,000  Level Aus ATC (RADAR)
03:58AM -31.6020 151.3160 201° Southwest 375 432 36,000  Level FlightAware
03:58AM -31.6576 151.2917 201° Southwest 373 429 36,000  Level Aus ATC (RADAR)
03:58AM -31.6620 151.2890 201° Southwest 377 434 36,000  Level FlightAware
03:59AM -31.7210 151.2630 201° Southwest 378 435 36,000  Level FlightAware
04:00AM -31.7750 151.2380 201° Southwest 381 438 36,000  Level FlightAware
04:00AM -31.8310 151.2130 201° Southwest 382 440 36,000  Level FlightAware
04:01AM -31.8910 151.1860 201° Southwest 380 437 36,000  Level FlightAware
04:01AM -31.9500 151.1590 201° Southwest 381 438 36,000  Level FlightAware
04:01AM -31.9616 151.1550 201° Southwest 378 435 36,000  Level Aus ATC (RADAR)
04:02AM -32.0090 151.1330 200° South 382 440 36,000  Level FlightAware
04:02AM -32.0660 151.1070 201° Southwest 381 438 36,000  Level FlightAware
04:03AM -32.1262 151.0809 201° Southwest 377 434 36,000  Level Aus ATC (RADAR)
04:03AM -32.1230 151.0820 201° Southwest 378 435 36,000 -2,400 Level FlightAware
04:04AM -32.1834 151.0562 201° Southwest 376 433 34,600 -2,340 Descending Aus ATC (RADAR)
04:04AM -32.1790 151.0570 201° Southwest 375 432 34,700 -3,300 Climbing FlightAware
04:04AM -32.2367 151.0309 201° Southwest 374 430 32,800 -3,300 Descending Aus ATC (RADAR)
04:04AM -32.2400 151.0290 201° Southwest 382 440 32,800 -1,980 Level FlightAware
04:05AM -32.2920 151.0070 200° South 376 433 31,600 -2,220 Descending FlightAware
04:05AM -32.3470 150.9820 201° Southwest 367 422 30,300 -2,340 Descending FlightAware
04:06AM -32.4128 150.9515 201° Southwest 358 412 28,800 -2,160 Descending Aus ATC (RADAR)
04:06AM -32.4090 150.9530 201° Southwest 358 412 28,900 -2,100 Climbing FlightAware
04:06AM -32.4615 150.9296 201° Southwest 354 407 27,700 -2,220 Descending Aus ATC (RADAR)
04:07AM -32.4650 150.9280 201° Southwest 351 404 27,600 -1,980 Descending FlightAware
04:07AM -32.5050 150.9170 201° Southwest 367 422 26,700 -2,400 Descending FlightAware
04:07AM -32.5176 150.9142 201° Southwest 351 404 26,400 -2,280 Descending Aus ATC (RADAR)
04:07AM -32.5610 150.9230 175° South 376 433 25,600 -1,980 Descending FlightAware
04:08AM -32.6140 150.9320 172° South 371 427 24,600 -2,040 Descending FlightAware
04:09AM -32.6740 150.9430 172° South 371 427 23,400 -2,160 Descending FlightAware
04:09AM -32.6885 150.9459 172° South 363 418 23,100 -2,100 Descending Aus ATC (RADAR)
04:09AM -32.7410 150.9550 172° South 356 410 22,000 -2,100 Descending FlightAware
04:09AM -32.7472 150.9567 172° South 357 411 21,900 -1,800 Descending Aus ATC (RADAR)
04:10AM -32.7900 150.9640 172° South 357 411 21,100 -2,040 Descending FlightAware
04:10AM -32.7965 150.9655 172° South 351 404 20,900 -2,160 Descending Aus ATC (RADAR)
04:10AM -32.8487 150.9747 172° South 356 410 19,900 -1,860 Descending Aus ATC (RADAR)
04:10AM -32.8480 150.9740 172° South 358 412 19,900 -1,680 Level FlightAware
04:11AM -32.9080 150.9850 171° South 365 420 18,800 -1,980 Descending FlightAware
04:12AM -32.9812 150.9979 171° South 360 414 17,300 -2,100 Descending Aus ATC (RADAR)
04:12AM -32.9750 150.9970 171° South 358 412 17,400 -1,920 Climbing FlightAware
04:12AM -33.0376 151.0083 171° South 353 406 16,200 -1,920 Descending Aus ATC (RADAR)
04:12AM -33.0580 151.0120 171° South 340 391 15,800 -1,860 Descending FlightAware
04:13AM -33.1160 151.0230 171° South 342 394 14,600 -1,980 Descending FlightAware
04:14AM -33.1710 151.0320 172° South 329 379 13,500 -1,860 Descending FlightAware
04:14AM -33.2290 151.0420 172° South 322 371 12,400 -1,800 Descending FlightAware
04:15AM -33.2820 151.0520 171° South 325 374 11,300 -1,740 Descending FlightAware
04:15AM -33.3350 151.0580 175° South 307 353 10,400 -1,020 Descending FlightAware
04:16AM -33.3840 151.0610 177° South 305 351 10,100 -720 Descending FlightAware
04:16AM -33.4190 151.0630 177° South 287 330 9,700 -1,080 Descending FlightAware
04:17AM -33.4390 151.0640 178° South 290 334 9,400 -1,260 Descending FlightAware
04:17AM -33.4700 151.0640 180° South 276 318 8,900 -1,380 Descending FlightAware
04:17AM -33.4970 151.0680 173° South 275 316 8,400 -1,440 Descending FlightAware
04:18AM -33.5290 151.0780 165° South 281 323 7,800 -1,500 Descending FlightAware
04:18AM -33.5530 151.0870 163° South 273 314 7,300 -1,500 Descending FlightAware
04:18AM -33.5730 151.0930 166° South 280 322 6,900 -1,620 Descending FlightAware
04:19AM -33.6070 151.1010 169° South 276 318 6,200 -1,500 Descending FlightAware
04:19AM -33.6320 151.1060 171° South 273 314 5,800 -1,200 Descending FlightAware
04:19AM -33.6490 151.1100 169° South 271 312 5,500 -720 Descending FlightAware
04:20AM -33.6730 151.1170 166° South 258 297 5,400 -600 Descending FlightAware
04:20AM -33.6960 151.1230 168° South 247 284 5,100 -900 Descending FlightAware
04:21AM -33.7140 151.1270 170° South 242 278 4,800 -1,380 Descending FlightAware
04:21AM -33.7450 151.1350 168° South 235 270 4,100 -1,620 Descending FlightAware
04:21AM -33.7560 151.1380 167° South 234 269 3,900 -1,080 Descending FlightAware
04:21AM -33.7820 151.1450 167° South 216 249 3,500 -1,200 Descending FlightAware
04:22AM -33.8010 151.1500 168° South 209 241 3,000 -1,200 Descending FlightAware
04:22AM -33.8170 151.1540 168° South 201 231 2,700 -960 Descending FlightAware
04:22AM -33.8350 151.1590 167° South 191 220 2,400 -1,080 Descending FlightAware
04:23AM -33.8520 151.1630 169° South 178 205 2,000 -1,080 Descending FlightAware
04:23AM -33.8660 151.1670 167° South 165 190 1,700 -780 Descending FlightAware
04:23AM -33.8810 151.1700 171° South 150 173 1,500 -780 Descending FlightAware
04:24AM -33.8940 151.1740 166° South 140 161 1,200 -780 Descending FlightAware
04:24AM -33.9060 151.1770 168° South 131 151 1,000 -600 Descending FlightAware
04:24AM -33.9170 151.1800 167° South 131 151 800 -780 Descending FlightAware
04:25AM -33.9300 151.1830 169° South 135 155 500 -780 Descending FlightAware
04:25AM -33.9420 151.1860 168° South 138 159 300 -600 Descending FlightAware
04:26AM -33.9610 151.1910 168° South 105 121 -600 Descending FlightAware